sensor_id;sensor_type;location;lat;lon;timestamp;temperature;humidity
963;DHT22;469;48.770;9.176;2023-02-11T13:11:29;6.30;1.00
963;DHT22;469;48.770;9.176;2023-02-11T13:14:05;9.60;1.00
963;DHT22;469;48.770;9.176;2023-02-11T13:16:38;9.60;1.00
963;DHT22;469;48.770;9.176;2023-02-11T13:19:13;9.80;1.00
963;DHT22;469;48.770;9.176;2023-02-11T13:21:58;9.70;1.00
963;DHT22;469;48.770;9.176;2023-02-11T13:24:38;9.80;1.00
963;DHT22;469;48.770;9.176;2023-02-11T13:27:18;9.90;1.00
963;DHT22;469;48.770;9.176;2023-02-11T13:30:22;9.50;1.00
963;DHT22;469;48.770;9.176;2023-02-11T13:33:20;9.40;1.00
963;DHT22;469;48.770;9.176;2023-02-11T13:36:15;9.40;1.00
963;DHT22;469;48.770;9.176;2023-02-11T13:38:57;9.10;1.00
963;DHT22;469;48.770;9.176;2023-02-11T13:41:36;9.00;1.00
963;DHT22;469;48.770;9.176;2023-02-11T13:44:21;8.80;1.00
963;DHT22;469;48.770;9.176;2023-02-11T13:46:57;8.60;1.00
963;DHT22;469;48.770;9.176;2023-02-11T13:49:34;8.40;1.00
963;DHT22;469;48.770;9.176;2023-02-11T13:52:15;8.30;1.00
963;DHT22;469;48.770;9.176;2023-02-11T13:54:47;8.30;1.00
963;DHT22;469;48.770;9.176;2023-02-11T13:57:30;8.30;1.00
963;DHT22;469;48.770;9.176;2023-02-11T14:03:33;8.40;1.00
963;DHT22;469;48.770;9.176;2023-02-11T14:06:22;8.50;1.00
963;DHT22;469;48.770;9.176;2023-02-11T14:09:45;8.60;1.00
963;DHT22;469;48.770;9.176;2023-02-11T14:12:33;8.60;1.00
963;DHT22;469;48.770;9.176;2023-02-11T14:15:27;8.60;1.00
963;DHT22;469;48.770;9.176;2023-02-11T14:21:14;8.60;1.00
963;DHT22;469;48.770;9.176;2023-02-11T14:23:43;8.80;1.00
963;DHT22;469;48.770;9.176;2023-02-11T14:26:30;8.80;1.00
963;DHT22;469;48.770;9.176;2023-02-11T14:29:05;8.80;1.00
963;DHT22;469;48.770;9.176;2023-02-11T14:31:56;8.90;1.00
963;DHT22;469;48.770;9.176;2023-02-11T14:34:51;9.00;1.00
963;DHT22;469;48.770;9.176;2023-02-11T14:37:51;9.10;1.00
963;DHT22;469;48.770;9.176;2023-02-11T14:40:29;9.00;1.00
963;DHT22;469;48.770;9.176;2023-02-11T14:43:05;9.00;1.00
963;DHT22;469;48.770;9.176;2023-02-11T14:45:36;8.90;1.00
963;DHT22;469;48.770;9.176;2023-02-11T14:48:12;8.90;1.00
963;DHT22;469;48.770;9.176;2023-02-11T14:50:49;9.00;1.00
963;DHT22;469;48.770;9.176;2023-02-11T14:53:21;9.00;1.00
963;DHT22;469;48.770;9.176;2023-02-11T14:55:49;9.00;1.00
963;DHT22;469;48.770;9.176;2023-02-11T14:58:24;9.00;1.00
963;DHT22;469;48.770;9.176;2023-02-11T15:00:57;9.10;1.00
963;DHT22;469;48.770;9.176;2023-02-11T15:03:29;9.10;1.00
963;DHT22;469;48.770;9.176;2023-02-11T15:06:11;9.10;1.00
963;DHT22;469;48.770;9.176;2023-02-11T15:08:48;9.10;1.00
963;DHT22;469;48.770;9.176;2023-02-11T15:11:18;9.30;1.00
963;DHT22;469;48.770;9.176;2023-02-11T15:13:48;9.30;1.00
963;DHT22;469;48.770;9.176;2023-02-11T15:16:26;9.30;1.00
963;DHT22;469;48.770;9.176;2023-02-11T15:19:00;9.30;1.00
963;DHT22;469;48.770;9.176;2023-02-11T15:21:36;9.10;1.00
963;DHT22;469;48.770;9.176;2023-02-11T15:24:23;8.90;1.00
963;DHT22;469;48.770;9.176;2023-02-11T15:27:01;8.90;1.00
963;DHT22;469;48.770;9.176;2023-02-11T15:29:35;9.00;1.00
963;DHT22;469;48.770;9.176;2023-02-11T15:32:05;9.20;1.00
963;DHT22;469;48.770;9.176;2023-02-11T15:34:32;9.30;1.00
963;DHT22;469;48.770;9.176;2023-02-11T15:37:01;9.40;1.00
963;DHT22;469;48.770;9.176;2023-02-11T15:39:32;9.40;1.00
963;DHT22;469;48.770;9.176;2023-02-11T15:42:22;9.50;1.00
963;DHT22;469;48.770;9.176;2023-02-11T15:45:08;9.40;1.00
963;DHT22;469;48.770;9.176;2023-02-11T15:47:36;9.40;1.00
963;DHT22;469;48.770;9.176;2023-02-11T15:50:06;9.40;1.00
963;DHT22;469;48.770;9.176;2023-02-11T15:52:48;9.30;1.00
963;DHT22;469;48.770;9.176;2023-02-11T15:55:20;9.10;1.00
963;DHT22;469;48.770;9.176;2023-02-11T15:57:51;8.80;1.00
963;DHT22;469;48.770;9.176;2023-02-11T16:00:21;8.70;1.00
963;DHT22;469;48.770;9.176;2023-02-11T16:02:50;8.50;1.00
963;DHT22;469;48.770;9.176;2023-02-11T16:05:28;8.40;1.00
963;DHT22;469;48.770;9.176;2023-02-11T16:08:11;8.30;1.00
963;DHT22;469;48.770;9.176;2023-02-11T16:10:53;8.20;1.00
963;DHT22;469;48.770;9.176;2023-02-11T16:13:23;8.20;1.00
963;DHT22;469;48.770;9.176;2023-02-11T16:15:56;8.10;1.00
963;DHT22;469;48.770;9.176;2023-02-11T16:18:34;8.20;1.00
963;DHT22;469;48.770;9.176;2023-02-11T16:21:03;8.20;1.00
963;DHT22;469;48.770;9.176;2023-02-11T16:23:40;8.30;1.00
963;DHT22;469;48.770;9.176;2023-02-11T16:26:23;8.20;1.00
963;DHT22;469;48.770;9.176;2023-02-11T16:29:05;8.20;1.00
963;DHT22;469;48.770;9.176;2023-02-11T16:31:41;8.20;1.00
963;DHT22;469;48.770;9.176;2023-02-11T16:34:18;8.10;1.00
963;DHT22;469;48.770;9.176;2023-02-11T16:36:49;8.00;1.00
963;DHT22;469;48.770;9.176;2023-02-11T16:39:19;8.00;1.00
963;DHT22;469;48.770;9.176;2023-02-11T16:41:51;7.90;1.00
963;DHT22;469;48.770;9.176;2023-02-11T16:44:18;8.00;1.00
963;DHT22;469;48.770;9.176;2023-02-11T16:46:47;8.00;1.00
963;DHT22;469;48.770;9.176;2023-02-11T16:49:17;8.00;1.00
963;DHT22;469;48.770;9.176;2023-02-11T16:51:47;8.10;1.00
963;DHT22;469;48.770;9.176;2023-02-11T16:54:17;8.00;1.00
963;DHT22;469;48.770;9.176;2023-02-11T16:56:52;8.00;1.00
963;DHT22;469;48.770;9.176;2023-02-11T16:59:19;7.90;1.00
963;DHT22;469;48.770;9.176;2023-02-11T17:01:47;7.90;1.00
963;DHT22;469;48.770;9.176;2023-02-11T17:04:19;8.00;1.00
963;DHT22;469;48.770;9.176;2023-02-11T17:06:49;8.00;1.00
963;DHT22;469;48.770;9.176;2023-02-11T17:09:25;7.90;1.00
963;DHT22;469;48.770;9.176;2023-02-11T17:11:58;8.00;1.00
963;DHT22;469;48.770;9.176;2023-02-11T17:14:28;8.00;1.00
963;DHT22;469;48.770;9.176;2023-02-11T17:16:57;8.00;1.00
963;DHT22;469;48.770;9.176;2023-02-11T17:19:26;8.00;1.00
963;DHT22;469;48.770;9.176;2023-02-11T17:21:53;8.00;1.00
963;DHT22;469;48.770;9.176;2023-02-11T17:24:22;8.00;1.00
963;DHT22;469;48.770;9.176;2023-02-11T17:27:02;7.90;1.00
963;DHT22;469;48.770;9.176;2023-02-11T17:29:29;7.90;1.00
963;DHT22;469;48.770;9.176;2023-02-11T17:32:01;8.00;1.00
963;DHT22;469;48.770;9.176;2023-02-11T17:34:34;7.80;1.00
963;DHT22;469;48.770;9.176;2023-02-11T17:37:08;7.70;1.00
963;DHT22;469;48.770;9.176;2023-02-11T17:39:36;7.60;1.00
963;DHT22;469;48.770;9.176;2023-02-11T17:42:12;7.60;1.00
963;DHT22;469;48.770;9.176;2023-02-11T17:44:50;7.60;1.00
963;DHT22;469;48.770;9.176;2023-02-11T17:47:18;7.70;1.00
963;DHT22;469;48.770;9.176;2023-02-11T17:50:10;7.80;1.00
963;DHT22;469;48.770;9.176;2023-02-11T17:52:46;7.80;1.00
963;DHT22;469;48.770;9.176;2023-02-11T17:55:14;7.80;1.00
963;DHT22;469;48.770;9.176;2023-02-11T17:57:45;7.80;1.00
963;DHT22;469;48.770;9.176;2023-02-11T18:03:01;7.70;1.00
963;DHT22;469;48.770;9.176;2023-02-11T18:05:45;7.70;1.00
963;DHT22;469;48.770;9.176;2023-02-11T18:08:20;7.70;1.00
963;DHT22;469;48.770;9.176;2023-02-11T18:10:57;7.60;1.00
963;DHT22;469;48.770;9.176;2023-02-11T18:13:38;7.60;1.00
963;DHT22;469;48.770;9.176;2023-02-11T18:16:19;7.60;1.00
963;DHT22;469;48.770;9.176;2023-02-11T18:18:46;7.60;1.00
963;DHT22;469;48.770;9.176;2023-02-11T18:21:15;7.60;1.00
963;DHT22;469;48.770;9.176;2023-02-11T18:23:42;7.70;1.00
963;DHT22;469;48.770;9.176;2023-02-11T18:26:10;7.70;1.00
963;DHT22;469;48.770;9.176;2023-02-11T18:28:40;7.60;1.00
963;DHT22;469;48.770;9.176;2023-02-11T18:31:08;7.60;1.00
963;DHT22;469;48.770;9.176;2023-02-11T18:33:35;7.60;1.00
963;DHT22;469;48.770;9.176;2023-02-11T18:36:04;7.70;1.00
963;DHT22;469;48.770;9.176;2023-02-11T18:38:31;7.80;1.00
963;DHT22;469;48.770;9.176;2023-02-11T18:40:58;7.70;1.00
963;DHT22;469;48.770;9.176;2023-02-11T18:43:25;7.70;1.00
963;DHT22;469;48.770;9.176;2023-02-11T18:45:57;7.80;1.00
963;DHT22;469;48.770;9.176;2023-02-11T18:48:24;7.80;1.00
963;DHT22;469;48.770;9.176;2023-02-11T18:50:52;7.80;1.00
963;DHT22;469;48.770;9.176;2023-02-11T18:53:20;7.80;1.00
963;DHT22;469;48.770;9.176;2023-02-11T18:55:47;7.80;1.00
963;DHT22;469;48.770;9.176;2023-02-11T18:58:14;7.70;1.00
963;DHT22;469;48.770;9.176;2023-02-11T19:00:43;7.70;1.00
963;DHT22;469;48.770;9.176;2023-02-11T19:03:12;7.60;1.00
963;DHT22;469;48.770;9.176;2023-02-11T19:05:42;7.60;1.00
963;DHT22;469;48.770;9.176;2023-02-11T19:08:09;7.70;1.00
963;DHT22;469;48.770;9.176;2023-02-11T19:10:39;7.80;1.00
963;DHT22;469;48.770;9.176;2023-02-11T19:13:07;7.90;1.00
963;DHT22;469;48.770;9.176;2023-02-11T19:15:33;7.80;1.00
963;DHT22;469;48.770;9.176;2023-02-11T19:18:00;7.70;1.00
963;DHT22;469;48.770;9.176;2023-02-11T19:20:28;7.60;1.00
963;DHT22;469;48.770;9.176;2023-02-11T19:22:58;7.60;1.00
963;DHT22;469;48.770;9.176;2023-02-11T19:25:25;7.60;1.00
963;DHT22;469;48.770;9.176;2023-02-11T19:27:52;7.60;1.00
963;DHT22;469;48.770;9.176;2023-02-11T19:30:19;7.50;1.00
963;DHT22;469;48.770;9.176;2023-02-11T19:32:45;7.50;1.00
963;DHT22;469;48.770;9.176;2023-02-11T19:35:17;7.50;1.00
963;DHT22;469;48.770;9.176;2023-02-11T19:37:45;7.50;1.00
963;DHT22;469;48.770;9.176;2023-02-11T19:40:12;7.50;1.00
963;DHT22;469;48.770;9.176;2023-02-11T19:42:41;7.50;1.00
963;DHT22;469;48.770;9.176;2023-02-11T19:45:08;7.50;1.00
963;DHT22;469;48.770;9.176;2023-02-11T19:47:35;7.50;1.00
963;DHT22;469;48.770;9.176;2023-02-11T19:50:02;7.50;1.00
963;DHT22;469;48.770;9.176;2023-02-11T19:52:29;7.60;1.00
963;DHT22;469;48.770;9.176;2023-02-11T19:54:57;7.60;1.00
963;DHT22;469;48.770;9.176;2023-02-11T19:57:23;7.60;1.00
963;DHT22;469;48.770;9.176;2023-02-11T19:59:50;7.70;1.00
963;DHT22;469;48.770;9.176;2023-02-11T20:02:19;7.60;1.00
963;DHT22;469;48.770;9.176;2023-02-11T20:04:46;7.60;1.00
963;DHT22;469;48.770;9.176;2023-02-11T20:07:13;7.60;1.00
963;DHT22;469;48.770;9.176;2023-02-11T20:09:39;7.50;1.00
963;DHT22;469;48.770;9.176;2023-02-11T20:12:08;7.50;1.00
963;DHT22;469;48.770;9.176;2023-02-11T20:14:36;7.50;1.00
963;DHT22;469;48.770;9.176;2023-02-11T20:17:03;7.40;1.00
963;DHT22;469;48.770;9.176;2023-02-11T20:19:30;7.40;1.00
963;DHT22;469;48.770;9.176;2023-02-11T20:21:57;7.40;1.00
963;DHT22;469;48.770;9.176;2023-02-11T20:24:24;7.30;1.00
963;DHT22;469;48.770;9.176;2023-02-11T20:26:51;7.40;1.00
963;DHT22;469;48.770;9.176;2023-02-11T20:29:21;7.40;1.00
963;DHT22;469;48.770;9.176;2023-02-11T20:31:49;7.40;1.00
963;DHT22;469;48.770;9.176;2023-02-11T20:34:16;7.40;1.00
963;DHT22;469;48.770;9.176;2023-02-11T20:36:43;7.40;1.00
963;DHT22;469;48.770;9.176;2023-02-11T20:39:16;7.40;1.00
963;DHT22;469;48.770;9.176;2023-02-11T20:41:43;7.40;1.00
963;DHT22;469;48.770;9.176;2023-02-11T20:44:11;7.40;1.00
963;DHT22;469;48.770;9.176;2023-02-11T20:46:41;7.40;1.00
963;DHT22;469;48.770;9.176;2023-02-11T20:49:10;7.40;1.00
963;DHT22;469;48.770;9.176;2023-02-11T20:51:38;7.40;1.00
963;DHT22;469;48.770;9.176;2023-02-11T20:54:05;7.30;1.00
963;DHT22;469;48.770;9.176;2023-02-11T20:56:34;7.30;1.00
963;DHT22;469;48.770;9.176;2023-02-11T20:59:02;7.30;1.00
963;DHT22;469;48.770;9.176;2023-02-11T21:01:31;7.20;1.00
963;DHT22;469;48.770;9.176;2023-02-11T21:04:01;7.20;1.00
963;DHT22;469;48.770;9.176;2023-02-11T21:06:31;7.20;1.00
963;DHT22;469;48.770;9.176;2023-02-11T21:08:58;7.10;1.00
963;DHT22;469;48.770;9.176;2023-02-11T21:11:25;7.10;1.00
963;DHT22;469;48.770;9.176;2023-02-11T21:13:51;7.00;1.00
963;DHT22;469;48.770;9.176;2023-02-11T21:16:19;7.00;1.00
963;DHT22;469;48.770;9.176;2023-02-11T21:18:47;7.00;1.00
963;DHT22;469;48.770;9.176;2023-02-11T21:21:21;7.10;1.00
963;DHT22;469;48.770;9.176;2023-02-11T21:23:48;7.10;1.00
963;DHT22;469;48.770;9.176;2023-02-11T21:26:15;7.20;1.00
963;DHT22;469;48.770;9.176;2023-02-11T21:28:42;7.20;1.00
963;DHT22;469;48.770;9.176;2023-02-11T21:31:17;7.20;1.00
963;DHT22;469;48.770;9.176;2023-02-11T21:33:44;7.20;1.00
963;DHT22;469;48.770;9.176;2023-02-11T21:36:11;7.20;1.00
963;DHT22;469;48.770;9.176;2023-02-11T21:38:40;7.20;1.00
963;DHT22;469;48.770;9.176;2023-02-11T21:41:08;7.20;1.00
963;DHT22;469;48.770;9.176;2023-02-11T21:43:34;7.10;1.00
963;DHT22;469;48.770;9.176;2023-02-11T21:46:05;7.10;1.00
963;DHT22;469;48.770;9.176;2023-02-11T21:48:33;7.20;1.00
963;DHT22;469;48.770;9.176;2023-02-11T21:51:03;7.20;1.00
963;DHT22;469;48.770;9.176;2023-02-11T21:53:30;7.20;1.00
963;DHT22;469;48.770;9.176;2023-02-11T21:56:09;7.20;1.00
963;DHT22;469;48.770;9.176;2023-02-11T21:58:36;7.30;1.00
963;DHT22;469;48.770;9.176;2023-02-11T22:01:10;7.20;1.00
963;DHT22;469;48.770;9.176;2023-02-11T22:03:37;7.20;1.00
963;DHT22;469;48.770;9.176;2023-02-11T22:06:05;7.20;1.00
963;DHT22;469;48.770;9.176;2023-02-11T22:08:32;7.20;1.00
963;DHT22;469;48.770;9.176;2023-02-11T22:11:01;7.20;1.00
963;DHT22;469;48.770;9.176;2023-02-11T22:13:29;7.30;1.00
963;DHT22;469;48.770;9.176;2023-02-11T22:15:57;7.30;1.00
963;DHT22;469;48.770;9.176;2023-02-11T22:18:24;7.30;1.00
963;DHT22;469;48.770;9.176;2023-02-11T22:20:59;7.40;1.00
963;DHT22;469;48.770;9.176;2023-02-11T22:23:26;7.40;1.00
963;DHT22;469;48.770;9.176;2023-02-11T22:25:53;7.30;1.00
963;DHT22;469;48.770;9.176;2023-02-11T22:28:20;7.30;1.00
963;DHT22;469;48.770;9.176;2023-02-11T22:30:52;7.20;1.00
963;DHT22;469;48.770;9.176;2023-02-11T22:33:19;7.30;1.00
963;DHT22;469;48.770;9.176;2023-02-11T22:35:46;7.20;1.00
963;DHT22;469;48.770;9.176;2023-02-11T22:38:13;7.20;1.00
963;DHT22;469;48.770;9.176;2023-02-11T22:40:40;7.30;1.00
963;DHT22;469;48.770;9.176;2023-02-11T22:43:07;7.20;1.00
963;DHT22;469;48.770;9.176;2023-02-11T22:45:35;7.30;1.00
963;DHT22;469;48.770;9.176;2023-02-11T22:48:03;7.30;1.00
963;DHT22;469;48.770;9.176;2023-02-11T22:50:30;7.30;1.00
963;DHT22;469;48.770;9.176;2023-02-11T22:52:57;7.30;1.00
963;DHT22;469;48.770;9.176;2023-02-11T22:55:24;7.20;1.00
963;DHT22;469;48.770;9.176;2023-02-11T22:57:51;7.20;1.00
963;DHT22;469;48.770;9.176;2023-02-11T23:00:18;7.10;1.00
963;DHT22;469;48.770;9.176;2023-02-11T23:02:45;7.10;1.00
963;DHT22;469;48.770;9.176;2023-02-11T23:05:16;7.10;1.00
963;DHT22;469;48.770;9.176;2023-02-11T23:07:43;7.00;1.00
963;DHT22;469;48.770;9.176;2023-02-11T23:10:10;7.00;1.00
963;DHT22;469;48.770;9.176;2023-02-11T23:12:36;7.00;1.00
963;DHT22;469;48.770;9.176;2023-02-11T23:15:04;7.00;1.00
963;DHT22;469;48.770;9.176;2023-02-11T23:17:30;7.00;1.00
963;DHT22;469;48.770;9.176;2023-02-11T23:19:57;7.00;1.00
963;DHT22;469;48.770;9.176;2023-02-11T23:22:25;7.00;1.00
963;DHT22;469;48.770;9.176;2023-02-11T23:24:52;7.00;1.00
963;DHT22;469;48.770;9.176;2023-02-11T23:27:19;7.00;1.00
963;DHT22;469;48.770;9.176;2023-02-11T23:29:45;7.00;1.00
963;DHT22;469;48.770;9.176;2023-02-11T23:32:12;7.00;1.00
963;DHT22;469;48.770;9.176;2023-02-11T23:34:39;7.00;1.00
963;DHT22;469;48.770;9.176;2023-02-11T23:37:05;6.90;1.00
963;DHT22;469;48.770;9.176;2023-02-11T23:39:34;6.90;1.00
963;DHT22;469;48.770;9.176;2023-02-11T23:42:00;6.90;1.00
963;DHT22;469;48.770;9.176;2023-02-11T23:44:27;6.90;1.00
963;DHT22;469;48.770;9.176;2023-02-11T23:46:54;6.90;1.00
963;DHT22;469;48.770;9.176;2023-02-11T23:49:20;6.90;1.00
963;DHT22;469;48.770;9.176;2023-02-11T23:51:47;6.90;1.00
963;DHT22;469;48.770;9.176;2023-02-11T23:54:14;7.00;1.00
963;DHT22;469;48.770;9.176;2023-02-11T23:56:42;7.00;1.00
963;DHT22;469;48.770;9.176;2023-02-11T23:59:09;7.00;1.00
